Time;durP1;ratioP1;P1;durP2;ratioP2;P2;SDS_P1;SDS_P2;PMS_P1;PMS_P2;Temp;Humidity;BMP_temperature;BMP_pressure;BME280_temperature;BME280_humidity;BME280_pressure;Samples;Min_cycle;Max_cycle;Signal;HPM_P1;HPM_P2
2021/05/06 00:08:46;;;;;;;5.03;2.87;;;5.70;98.10;;;;;;5098119;28;20531;-79
2021/05/06 00:32:54;;;;;;;6.67;4.87;;;5.60;98.80;;;;;;5099321;28;20035;-79
2021/05/06 00:35:22;;;;;;;8.33;5.37;;;5.60;98.90;;;;;;5098807;28;20032;-79
2021/05/06 00:38:11;;;;;;;7.67;5.57;;;5.60;99.00;;;;;;5080995;28;20054;-79
2021/05/06 00:46:25;;;;;;;7.33;5.20;;;5.60;99.20;;;;;;5101465;28;20398;-79
2021/05/06 00:57:16;;;;;;;8.80;7.17;;;5.50;99.70;;;;;;5083137;28;20027;-79
2021/05/06 01:02:49;;;;;;;9.03;6.33;;;5.50;99.90;;;;;;5087543;28;20051;-79
2021/05/06 01:05:25;;;;;;;12.40;9.20;;;5.50;99.90;;;;;;5086610;28;20486;-79
2021/05/06 01:13:15;;;;;;;11.30;8.80;;;5.40;99.90;;;;;;5104924;28;20036;-78
2021/05/06 01:15:42;;;;;;;10.43;8.73;;;5.40;99.90;;;;;;5108956;28;20070;-78
2021/05/06 01:18:09;;;;;;;9.83;8.30;;;5.40;99.90;;;;;;5075264;28;20042;-78
2021/05/06 01:20:42;;;;;;;10.50;9.30;;;5.40;99.90;;;;;;5104521;28;20051;-78
2021/05/06 01:23:10;;;;;;;11.77;8.75;;;5.50;99.90;;;;;;5104084;28;20032;-80
2021/05/06 01:25:37;;;;;;;10.67;9.60;;;5.50;99.90;;;;;;5089541;28;20035;-78
2021/05/06 01:28:09;;;;;;;10.37;9.03;;;5.50;99.90;;;;;;5086180;28;20032;-79
2021/05/06 01:30:46;;;;;;;10.23;9.13;;;5.50;99.90;;;;;;5099781;28;20043;-79
2021/05/06 01:34:04;;;;;;;12.63;9.67;;;5.50;99.90;;;;;;5103056;28;20044;-79
2021/05/06 01:36:14;;;;;;;9.60;8.38;;;5.50;99.90;;;;;;5091219;28;20040;-78
2021/05/06 02:00:00;;;;;;;12.23;11.03;;;5.50;99.90;;;;;;5093831;28;20486;-78
2021/05/06 02:02:26;;;;;;;14.20;11.90;;;5.50;99.90;;;;;;5090244;28;20062;-79
2021/05/06 02:04:53;;;;;;;15.40;12.10;;;5.60;99.90;;;;;;5090196;28;20036;-82
2021/05/06 02:07:21;;;;;;;12.47;11.17;;;5.50;99.90;;;;;;5089942;28;20044;-79
2021/05/06 02:09:54;;;;;;;14.63;13.07;;;5.60;99.90;;;;;;5090730;28;20043;-78
2021/05/06 02:12:22;;;;;;;17.23;14.07;;;5.50;99.90;;;;;;5075754;28;20035;-78
2021/05/06 02:14:59;;;;;;;14.97;13.13;;;5.50;99.90;;;;;;5059597;28;20043;-78
2021/05/06 02:17:25;;;;;;;14.33;12.33;;;5.50;99.90;;;;;;5108483;28;20044;-78
2021/05/06 02:19:54;;;;;;;16.70;14.33;;;5.50;99.90;;;;;;5072951;28;20050;-78
2021/05/06 02:22:21;;;;;;;12.30;10.20;;;5.50;99.90;;;;;;5073705;28;20047;-78
2021/05/06 02:24:51;;;;;;;13.07;11.73;;;5.50;99.90;;;;;;5106291;28;20043;-78
2021/05/06 02:27:17;;;;;;;13.77;12.33;;;5.50;99.90;;;;;;5091652;28;20490;-77
2021/05/06 02:29:45;;;;;;;11.90;10.70;;;5.50;99.90;;;;;;5089068;28;20032;-79
2021/05/06 02:32:12;;;;;;;14.80;10.43;;;5.50;99.90;;;;;;5106899;28;20036;-78
2021/05/06 02:34:39;;;;;;;12.87;11.30;;;5.50;99.90;;;;;;5076289;28;20027;-79
2021/05/06 02:37:05;;;;;;;12.93;10.87;;;5.50;99.90;;;;;;5089374;28;20036;-79
2021/05/06 02:39:32;;;;;;;12.63;11.30;;;5.50;99.90;;;;;;5073889;28;20032;-78
2021/05/06 02:41:58;;;;;;;14.73;10.40;;;5.50;99.90;;;;;;5087632;28;20043;-79
2021/05/06 02:44:35;;;;;;;13.13;11.37;;;5.50;99.90;;;;;;5090595;28;20051;-78
2021/05/06 02:47:03;;;;;;;15.80;11.00;;;5.50;99.90;;;;;;5110527;28;20027;-78
2021/05/06 02:49:30;;;;;;;10.83;9.73;;;5.50;99.90;;;;;;5108156;28;20027;-78
2021/05/06 02:55:00;;;;;;;12.17;9.37;;;5.50;99.90;;;;;;5094656;28;20413;-79
2021/05/06 02:57:42;;;;;;;12.83;10.77;;;5.40;99.90;;;;;;5106831;28;20474;-79
2021/05/06 03:02:57;;;;;;;14.70;12.47;;;5.40;99.90;;;;;;5104931;28;20043;-78
2021/05/06 03:05:28;;;;;;;14.60;11.73;;;5.40;99.90;;;;;;5074671;28;20110;-81
2021/05/06 03:24:16;;;;;;;14.53;12.10;;;4.90;99.90;;;;;;5105173;28;20057;-78
2021/05/06 03:26:44;;;;;;;16.70;14.23;;;4.80;99.90;;;;;;5104465;28;20046;-79
2021/05/06 03:29:14;;;;;;;15.27;13.00;;;4.70;99.90;;;;;;5103301;28;20048;-78
2021/05/06 03:31:57;;;;;;;13.60;12.20;;;4.60;99.90;;;;;;5073213;28;20031;-78
2021/05/06 03:34:38;;;;;;;14.30;12.60;;;4.60;99.90;;;;;;5104287;28;20039;-78
2021/05/06 03:42:59;;;;;;;15.30;12.77;;;4.40;99.90;;;;;;5106611;28;20043;-78
2021/05/06 03:45:54;;;;;;;14.30;12.23;;;4.30;99.90;;;;;;5076568;28;20036;-82
2021/05/06 03:49:33;;;;;;;12.53;11.20;;;4.30;99.90;;;;;;5087455;28;20059;-83
2021/05/06 04:18:36;;;;;;;22.07;17.53;;;4.00;99.90;;;;;;5075586;28;20044;-79
2021/05/06 04:35:37;;;;;;;27.33;19.10;;;4.10;99.90;;;;;;5090110;28;20043;-79
2021/05/06 04:37:00;;;;;;;25.97;20.90;;;4.30;99.90;;;;;;5108738;28;20036;-79
2021/05/06 04:39:50;;;;;;;29.13;20.93;;;4.40;99.90;;;;;;5087366;28;20056;-78
2021/05/06 04:45:30;;;;;;;30.07;22.53;;;4.60;99.90;;;;;;5093287;28;20075;-78
2021/05/06 04:58:58;;;;;;;33.43;24.80;;;4.80;99.90;;;;;;5072345;28;21136;-80
2021/05/06 05:06:39;;;;;;;33.67;24.23;;;5.00;99.90;;;;;;5108493;28;20036;-79
2021/05/06 05:11:46;;;;;;;48.03;33.33;;;5.20;99.90;;;;;;5101418;28;20050;-80
2021/05/06 05:20:08;;;;;;;50.77;34.30;;;5.40;99.90;;;;;;5104925;28;20043;-77
2021/05/06 05:25:22;;;;;;;53.17;34.30;;;5.40;99.90;;;;;;5097188;28;20414;-77
2021/05/06 05:27:49;;;;;;;57.17;35.53;;;5.40;99.90;;;;;;5095613;28;20038;-77
2021/05/06 05:30:16;;;;;;;52.33;34.07;;;5.50;99.90;;;;;;5073827;28;20047;-80
2021/05/06 05:32:42;;;;;;;48.37;33.77;;;5.50;99.90;;;;;;5092978;28;20470;-79
2021/05/06 05:35:15;;;;;;;45.97;31.60;;;5.50;99.90;;;;;;5094119;28;20398;-80
2021/05/06 05:37:44;;;;;;;47.92;32.97;;;5.60;99.90;;;;;;5102162;28;20508;-80
2021/05/06 05:56:04;;;;;;;51.47;35.83;;;5.90;99.90;;;;;;5095743;28;20039;-79
2021/05/06 05:58:31;;;;;;;46.90;31.73;;;5.90;99.90;;;;;;5091135;28;20420;-80
2021/05/06 06:00:57;;;;;;;51.40;34.87;;;6.00;99.90;;;;;;5091911;28;20035;-79
2021/05/06 06:03:24;;;;;;;57.92;38.55;;;6.10;99.90;;;;;;5075208;28;20044;-79
2021/05/06 06:05:53;;;;;;;50.07;36.20;;;6.20;99.90;;;;;;5092787;28;20039;-80
2021/05/06 06:08:23;;;;;;;49.33;35.43;;;6.40;99.90;;;;;;5107607;28;20052;-80
2021/05/06 06:10:50;;;;;;;56.60;39.73;;;6.50;99.90;;;;;;5108390;28;20034;-80
2021/05/06 06:13:16;;;;;;;60.33;40.93;;;6.60;99.90;;;;;;5073081;28;20055;-80
2021/05/06 06:18:32;;;;;;;52.07;39.97;;;6.80;99.90;;;;;;5107522;28;20043;-79
2021/05/06 06:21:05;;;;;;;52.92;36.90;;;7.00;99.90;;;;;;5093665;28;20043;-79
2021/05/06 06:23:31;;;;;;;50.47;36.75;;;7.10;99.90;;;;;;5052268;28;20062;-79
2021/05/06 06:25:59;;;;;;;54.65;37.03;;;7.20;99.90;;;;;;5077030;28;20040;-79
2021/05/06 06:28:33;;;;;;;49.70;37.70;;;7.20;99.90;;;;;;5091834;28;20044;-80
2021/05/06 06:30:59;;;;;;;49.28;37.92;;;7.20;99.90;;;;;;5107886;28;20043;-79
2021/05/06 06:33:26;;;;;;;51.50;36.63;;;7.30;99.90;;;;;;5074978;28;20035;-80
2021/05/06 06:35:53;;;;;;;50.88;39.03;;;7.40;99.90;;;;;;5075215;28;20043;-79
2021/05/06 06:38:20;;;;;;;44.10;33.42;;;7.60;99.90;;;;;;5075119;28;20070;-80
2021/05/06 06:40:46;;;;;;;46.45;35.08;;;7.70;99.90;;;;;;5060185;28;20032;-79
2021/05/06 06:43:13;;;;;;;45.65;35.10;;;7.80;99.90;;;;;;5076751;28;20036;-79
2021/05/06 06:45:39;;;;;;;45.95;34.20;;;7.80;99.90;;;;;;5075062;28;20042;-79
2021/05/06 06:48:06;;;;;;;46.08;35.00;;;7.80;99.90;;;;;;5073337;28;20040;-79
2021/05/06 06:50:33;;;;;;;45.05;36.42;;;7.80;99.90;;;;;;5088581;28;20020;-79
2021/05/06 06:52:59;;;;;;;42.85;34.38;;;7.80;99.90;;;;;;5109162;28;20043;-77
2021/05/06 06:55:25;;;;;;;41.47;33.80;;;7.80;99.90;;;;;;5108314;28;20505;-78
2021/05/06 06:57:52;;;;;;;41.97;32.63;;;7.80;99.90;;;;;;5075967;28;20039;-79
2021/05/06 07:00:21;;;;;;;38.83;31.85;;;7.80;99.90;;;;;;5057586;28;20047;-79
2021/05/06 07:02:48;;;;;;;43.35;33.78;;;7.70;99.90;;;;;;5090995;28;20050;-79
2021/05/06 07:05:14;;;;;;;40.97;32.13;;;7.80;99.90;;;;;;5057119;28;20055;-80
2021/05/06 07:07:41;;;;;;;41.42;33.95;;;7.90;99.90;;;;;;5105555;28;20043;-79
2021/05/06 07:10:07;;;;;;;38.42;30.38;;;8.00;99.90;;;;;;5105530;28;20047;-80
2021/05/06 07:12:34;;;;;;;36.70;31.65;;;8.10;99.90;;;;;;5106726;28;20043;-81
2021/05/06 07:15:00;;;;;;;38.45;32.15;;;8.10;99.90;;;;;;5110637;28;20055;-80
2021/05/06 07:17:27;;;;;;;37.45;30.17;;;8.20;99.90;;;;;;5059969;28;20043;-80
2021/05/06 07:19:53;;;;;;;35.40;29.55;;;8.40;99.90;;;;;;5089050;28;20047;-78
2021/05/06 07:22:20;;;;;;;32.78;28.77;;;8.70;99.90;;;;;;5069961;28;20063;-78
2021/05/06 07:24:46;;;;;;;28.83;25.73;;;8.90;99.90;;;;;;5095601;28;20031;-78
2021/05/06 07:27:13;;;;;;;32.92;27.15;;;8.90;99.90;;;;;;5059131;28;20031;-78
2021/05/06 07:29:39;;;;;;;30.10;26.75;;;9.00;99.90;;;;;;5072857;28;20379;-78
2021/05/06 07:32:06;;;;;;;28.33;24.42;;;8.90;99.90;;;;;;5071005;28;20035;-78
2021/05/06 07:34:33;;;;;;;26.77;23.88;;;8.90;99.90;;;;;;5107503;28;20039;-78
2021/05/06 07:36:59;;;;;;;25.38;22.77;;;9.10;99.90;;;;;;5072106;28;20039;-78
2021/05/06 07:39:26;;;;;;;27.05;24.15;;;9.20;99.90;;;;;;5073586;28;20051;-79
2021/05/06 07:41:53;;;;;;;25.55;22.60;;;9.20;99.90;;;;;;5089334;28;20040;-79
2021/05/06 07:44:20;;;;;;;24.80;21.58;;;9.20;99.90;;;;;;5074892;28;20028;-79
2021/05/06 07:46:46;;;;;;;23.67;21.05;;;9.20;99.90;;;;;;5073800;28;20036;-79
2021/05/06 07:49:13;;;;;;;23.52;21.08;;;9.30;99.90;;;;;;5056625;28;20040;-79
2021/05/06 07:51:39;;;;;;;21.80;19.27;;;9.30;99.90;;;;;;5072454;28;20031;-79
2021/05/06 07:54:07;;;;;;;20.83;18.40;;;9.50;99.90;;;;;;5108863;28;20050;-79
2021/05/06 07:56:33;;;;;;;20.75;18.73;;;9.70;99.90;;;;;;5107067;28;20032;-79
2021/05/06 07:59:00;;;;;;;19.38;17.48;;;9.70;99.90;;;;;;5103934;28;20039;-79
2021/05/06 08:01:26;;;;;;;18.35;16.58;;;9.80;99.90;;;;;;5055296;28;20047;-79
2021/05/06 08:03:53;;;;;;;18.92;17.05;;;9.90;99.60;;;;;;5090685;28;20040;-79
2021/05/06 08:06:20;;;;;;;16.55;14.90;;;10.10;99.50;;;;;;5107969;28;20035;-80
2021/05/06 08:08:50;;;;;;;15.57;13.98;;;10.30;99.40;;;;;;5087763;28;20054;-81
2021/05/06 08:11:17;;;;;;;13.70;12.32;;;10.50;98.80;;;;;;5106562;27;20050;-81
2021/05/06 08:13:43;;;;;;;12.27;10.27;;;10.70;98.60;;;;;;5042154;28;20035;-81
2021/05/06 08:16:10;;;;;;;13.02;10.63;;;10.80;98.00;;;;;;5107053;28;20407;-81
2021/05/06 08:18:37;;;;;;;13.85;12.45;;;10.80;97.20;;;;;;5088392;28;20505;-81
2021/05/06 08:21:03;;;;;;;9.95;8.95;;;10.80;96.70;;;;;;5088144;28;20045;-80
2021/05/06 08:23:32;;;;;;;9.93;8.93;;;11.00;97.00;;;;;;5074151;28;20024;-80
2021/05/06 08:25:58;;;;;;;7.97;7.22;;;11.20;96.80;;;;;;5106248;28;20027;-80
2021/05/06 08:28:25;;;;;;;8.65;7.05;;;11.50;96.40;;;;;;5101378;28;20043;-82
2021/05/06 08:30:51;;;;;;;7.72;7.00;;;11.80;95.60;;;;;;5105130;28;20390;-82
2021/05/06 08:33:18;;;;;;;7.32;5.72;;;11.90;94.60;;;;;;5103844;28;20047;-82
2021/05/06 08:35:44;;;;;;;7.63;6.15;;;11.80;94.70;;;;;;5089539;28;20051;-82
2021/05/06 08:38:11;;;;;;;6.57;4.95;;;11.70;94.60;;;;;;5069186;28;20505;-81
2021/05/06 08:40:37;;;;;;;5.47;4.60;;;11.50;94.30;;;;;;5104463;28;20478;-82
2021/05/06 08:43:10;;;;;;;6.10;5.50;;;11.40;94.60;;;;;;5088745;28;20383;-79
2021/05/06 08:45:43;;;;;;;8.85;6.05;;;11.40;94.60;;;;;;5105851;28;20040;-79
2021/05/06 08:48:14;;;;;;;9.95;4.95;;;11.50;94.60;;;;;;5088629;28;20052;-79
2021/05/06 08:50:42;;;;;;;6.72;5.00;;;11.70;94.30;;;;;;5085240;28;20032;-78
2021/05/06 08:53:10;;;;;;;6.25;4.97;;;11.80;93.80;;;;;;5107616;28;20039;-78
2021/05/06 08:55:36;;;;;;;4.70;3.90;;;12.00;93.80;;;;;;5087704;28;20028;-79
2021/05/06 08:58:03;;;;;;;5.97;4.70;;;12.30;93.30;;;;;;5094029;28;20036;-79
2021/05/06 09:00:31;;;;;;;4.05;3.50;;;12.60;92.60;;;;;;5061228;28;20032;-80
2021/05/06 09:02:57;;;;;;;5.38;4.10;;;12.90;91.90;;;;;;5110294;27;20031;-78
2021/05/06 09:05:24;;;;;;;5.30;4.22;;;12.90;91.20;;;;;;5109651;28;20051;-78
2021/05/06 09:07:51;;;;;;;5.72;4.38;;;12.80;90.40;;;;;;5105035;28;20051;-79
2021/05/06 09:10:37;;;;;;;5.15;3.90;;;12.70;90.10;;;;;;5106340;28;20062;-77
2021/05/06 09:13:24;;;;;;;6.25;5.40;;;12.50;90.10;;;;;;5109189;28;20489;-76
2021/05/06 09:15:50;;;;;;;4.50;4.05;;;12.40;90.30;;;;;;5110365;28;20047;-77
2021/05/06 09:18:37;;;;;;;6.15;4.68;;;12.30;90.60;;;;;;5092222;28;20658;-76
2021/05/06 09:21:05;;;;;;;6.15;4.43;;;12.30;89.40;;;;;;5113137;27;20035;-76
2021/05/06 09:23:34;;;;;;;5.30;3.88;;;12.20;90.00;;;;;;5091404;28;20036;-76
2021/05/06 09:26:03;;;;;;;7.75;5.13;;;12.10;90.00;;;;;;5109974;27;20077;-76
2021/05/06 09:28:30;;;;;;;6.50;5.53;;;12.30;90.20;;;;;;5092872;28;20028;-78
2021/05/06 09:31:04;;;;;;;6.05;5.05;;;12.60;90.20;;;;;;5061935;28;20054;-79
2021/05/06 09:33:41;;;;;;;8.70;5.72;;;13.00;88.90;;;;;;5080574;28;20027;-78
2021/05/06 09:36:24;;;;;;;6.32;5.70;;;13.30;87.40;;;;;;5114586;28;20059;-78
2021/05/06 09:38:55;;;;;;;7.15;5.57;;;13.20;83.80;;;;;;5094843;28;20039;-80
2021/05/06 09:41:26;;;;;;;7.45;6.05;;;13.10;85.00;;;;;;5113421;28;20038;-78
2021/05/06 09:43:53;;;;;;;10.23;7.60;;;13.20;84.80;;;;;;5106127;28;20035;-79
2021/05/06 09:46:30;;;;;;;7.00;6.30;;;13.60;84.20;;;;;;5098171;27;20027;-79
2021/05/06 09:49:06;;;;;;;5.75;5.07;;;14.00;84.30;;;;;;5109536;27;20035;-78
2021/05/06 09:51:40;;;;;;;7.13;5.72;;;14.10;81.30;;;;;;5093557;28;20051;-79
2021/05/06 09:54:12;;;;;;;6.78;5.75;;;14.00;79.90;;;;;;5107649;28;20505;-79
2021/05/06 09:56:40;;;;;;;7.97;5.85;;;13.80;80.00;;;;;;5094289;28;20054;-78
2021/05/06 09:59:10;;;;;;;6.70;5.40;;;13.60;80.00;;;;;;5076668;28;20945;-78
2021/05/06 10:01:40;;;;;;;7.97;5.40;;;13.60;80.30;;;;;;5111070;28;20039;-79
2021/05/06 10:04:24;;;;;;;6.38;5.20;;;13.60;80.00;;;;;;5108014;28;20054;-78
2021/05/06 10:07:15;;;;;;;9.20;5.22;;;13.50;79.50;;;;;;5129177;27;20044;-78
2021/05/06 10:10:03;;;;;;;6.72;5.10;;;13.50;79.20;;;;;;5107520;28;20032;-79
2021/05/06 10:12:33;;;;;;;5.13;4.63;;;13.50;79.10;;;;;;5109528;28;20043;-78
2021/05/06 10:15:00;;;;;;;6.47;5.53;;;13.50;79.80;;;;;;5105875;28;20035;-79
2021/05/06 10:17:29;;;;;;;8.05;5.53;;;13.50;78.00;;;;;;5109096;28;20059;-80
2021/05/06 10:19:57;;;;;;;7.47;6.28;;;13.50;78.90;;;;;;5089800;28;20398;-79
2021/05/06 10:22:26;;;;;;;8.68;5.95;;;13.60;78.20;;;;;;5074247;28;20055;-79
2021/05/06 10:24:53;;;;;;;6.15;5.22;;;13.70;78.40;;;;;;5107188;28;20032;-80
2021/05/06 10:27:25;;;;;;;6.82;5.20;;;14.00;77.80;;;;;;5106996;28;20482;-80
2021/05/06 10:29:56;;;;;;;5.75;5.25;;;14.20;76.90;;;;;;5110796;27;20035;-80
2021/05/06 10:32:34;;;;;;;7.72;6.57;;;14.50;77.60;;;;;;5104739;28;20040;-79
2021/05/06 10:35:06;;;;;;;7.05;4.75;;;14.90;77.10;;;;;;5107245;28;20036;-80
2021/05/06 10:37:33;;;;;;;;;;;15.20;75.80;;;;;;5105528;28;20027;-79
2021/05/06 10:40:01;;;;;;;5.55;4.47;;;15.60;76.00;;;;;;5089594;28;19908;-82
2021/05/06 10:42:28;;;;;;;5.28;4.78;;;15.80;74.70;;;;;;5108291;28;20020;-82
2021/05/06 10:44:56;;;;;;;5.90;4.72;;;16.10;73.40;;;;;;5109055;28;20032;-79
2021/05/06 10:47:45;;;;;;;5.72;5.13;;;16.20;71.70;;;;;;5106332;28;20063;-79
2021/05/06 10:50:16;;;;;;;6.75;5.78;;;16.50;71.20;;;;;;5094777;28;20070;-79
2021/05/06 10:52:51;;;;;;;7.70;5.97;;;16.80;68.70;;;;;;5107811;28;20367;-79
2021/05/06 10:55:48;;;;;;;6.32;5.15;;;17.10;68.00;;;;;;5092552;28;20038;-81
2021/05/06 10:58:26;;;;;;;8.02;5.45;;;17.10;66.10;;;;;;5091119;28;20039;-79
2021/05/06 11:01:16;;;;;;;7.65;5.55;;;16.70;63.00;;;;;;5083144;28;20054;-80
2021/05/06 11:03:43;;;;;;;5.85;4.97;;;16.50;63.50;;;;;;5074637;28;20043;-80
2021/05/06 11:06:36;;;;;;;6.32;4.75;;;16.60;64.40;;;;;;5086151;28;20041;-80
2021/05/06 11:09:36;;;;;;;5.22;4.45;;;17.20;66.20;;;;;;5087315;28;20040;-80
2021/05/06 11:12:25;;;;;;;4.88;3.72;;;18.00;64.20;;;;;;5107409;28;20039;-80
2021/05/06 11:15:02;;;;;;;3.85;3.53;;;18.20;60.10;;;;;;5091762;28;20094;-80
2021/05/06 11:17:35;;;;;;;4.90;3.95;;;18.10;58.40;;;;;;5108480;28;20047;-80
2021/05/06 11:20:23;;;;;;;4.68;4.22;;;18.00;59.40;;;;;;5104980;28;20028;-81
2021/05/06 11:22:56;;;;;;;3.80;3.33;;;18.10;57.00;;;;;;5074519;28;20034;-81
2021/05/06 11:25:32;;;;;;;4.55;2.13;;;18.00;56.40;;;;;;5091285;28;20028;-82
2021/05/06 11:28:07;;;;;;;3.72;2.88;;;17.40;56.00;;;;;;5105787;28;20364;-82
2021/05/06 11:30:44;;;;;;;2.50;2.30;;;17.10;56.00;;;;;;5110036;28;20027;-82
2021/05/06 11:33:23;;;;;;;2.55;2.10;;;17.00;58.00;;;;;;5089427;28;20048;-83
2021/05/06 11:35:56;;;;;;;5.22;3.63;;;17.10;57.80;;;;;;5107997;28;20043;-81
2021/05/06 11:38:43;;;;;;;3.28;2.45;;;17.00;56.70;;;;;;5105621;28;20040;-81
2021/05/06 11:41:17;;;;;;;2.10;1.90;;;17.00;58.30;;;;;;5092320;28;20043;-82
2021/05/06 11:43:49;;;;;;;2.83;2.10;;;17.30;59.10;;;;;;5104477;28;20036;-83
2021/05/06 11:46:38;;;;;;;2.67;1.75;;;17.90;57.90;;;;;;5108221;28;20051;-80
2021/05/06 11:49:13;;;;;;;3.15;2.30;;;18.50;56.30;;;;;;5083147;28;20376;-81
2021/05/06 11:51:42;;;;;;;2.80;2.10;;;19.00;54.00;;;;;;5087717;28;20044;-81
2021/05/06 11:54:10;;;;;;;3.75;3.10;;;19.40;53.50;;;;;;5087124;28;20039;-81
2021/05/06 11:56:50;;;;;;;4.28;3.10;;;19.90;50.40;;;;;;5103652;28;20062;-81
2021/05/06 11:59:18;;;;;;;4.38;3.55;;;19.90;48.70;;;;;;5089291;28;20051;-82
2021/05/06 12:01:46;;;;;;;3.60;3.15;;;19.80;47.10;;;;;;5104806;28;20039;-82
2021/05/06 12:04:26;;;;;;;5.95;4.35;;;20.00;48.10;;;;;;5102665;28;20486;-83
2021/05/06 12:06:54;;;;;;;4.57;3.50;;;20.20;48.40;;;;;;5100050;28;20055;-82
2021/05/06 12:09:30;;;;;;;6.10;4.90;;;20.60;47.30;;;;;;5067662;28;20042;-82
2021/05/06 12:11:57;;;;;;;4.18;3.78;;;20.90;45.30;;;;;;5057523;28;20043;-82
2021/05/06 12:14:31;;;;;;;4.95;3.95;;;21.10;44.50;;;;;;5102213;28;20031;-83
2021/05/06 12:16:58;;;;;;;5.25;4.80;;;21.30;44.20;;;;;;5076597;28;20058;-82
2021/05/06 12:19:25;;;;;;;4.70;4.20;;;21.50;42.50;;;;;;5106082;28;20047;-83
2021/05/06 12:21:56;;;;;;;3.63;3.33;;;21.60;42.60;;;;;;5108569;28;20497;-83
2021/05/06 12:24:33;;;;;;;3.67;2.92;;;21.50;42.50;;;;;;5074204;28;20031;-83
2021/05/06 12:27:24;;;;;;;3.22;2.60;;;21.40;43.50;;;;;;5106735;28;20042;-83
2021/05/06 12:30:14;;;;;;;2.22;2.03;;;21.10;43.10;;;;;;5085580;28;20039;-83
2021/05/06 12:32:46;;;;;;;2.90;2.60;;;20.70;43.10;;;;;;5089440;28;20036;-83
2021/05/06 12:35:15;;;;;;;3.53;2.55;;;19.90;43.50;;;;;;5091413;28;20046;-83
2021/05/06 12:37:43;;;;;;;2.40;2.17;;;18.90;46.90;;;;;;5074315;28;20043;-82
2021/05/06 12:40:11;;;;;;;3.85;2.10;;;18.00;48.50;;;;;;5088425;28;20040;-83
2021/05/06 12:42:38;;;;;;;2.85;1.98;;;17.30;50.60;;;;;;5088805;28;20494;-82
2021/05/06 12:45:14;;;;;;;2.15;1.73;;;16.60;51.70;;;;;;5090179;28;20048;-83
2021/05/06 12:47:48;;;;;;;3.75;1.65;;;15.90;53.80;;;;;;5077360;28;20498;-84
2021/05/06 12:50:32;;;;;;;2.33;1.80;;;15.20;55.70;;;;;;5088189;28;20486;-83
2021/05/06 12:53:04;;;;;;;3.72;2.45;;;14.70;57.40;;;;;;5089672;28;20035;-84
2021/05/06 12:55:32;;;;;;;;;;;14.20;59.00;;;;;;5086772;28;20043;-83
2021/05/06 12:58:18;;;;;;;5.93;2.67;;;13.90;60.90;;;;;;5070632;28;19918;-85
2021/05/06 13:00:55;;;;;;;2.65;2.38;;;13.60;62.70;;;;;;5091430;28;20043;-84
2021/05/06 13:03:28;;;;;;;2.95;2.35;;;13.50;64.00;;;;;;5089573;28;20410;-84
2021/05/06 13:05:55;;;;;;;3.00;2.58;;;13.70;65.10;;;;;;5089305;28;20467;-85
2021/05/06 13:08:39;;;;;;;3.33;2.15;;;13.80;64.20;;;;;;5089147;28;20561;-84
2021/05/06 13:11:08;;;;;;;3.20;2.17;;;14.00;64.10;;;;;;5075797;28;20020;-85
2021/05/06 13:13:49;;;;;;;3.05;1.88;;;14.30;64.40;;;;;;5090068;28;20043;-85
2021/05/06 13:16:38;;;;;;;3.53;3.13;;;14.60;63.00;;;;;;5075313;28;20482;-84
2021/05/06 13:19:07;;;;;;;4.00;2.15;;;14.70;62.70;;;;;;5088185;28;20024;-85
2021/05/06 13:21:35;;;;;;;2.80;1.92;;;14.80;63.00;;;;;;5090753;28;20027;-85
2021/05/06 13:24:07;;;;;;;3.08;2.80;;;15.20;63.30;;;;;;5074431;28;20036;-85
2021/05/06 13:26:36;;;;;;;3.42;2.78;;;15.50;61.60;;;;;;5092209;28;20470;-86
2021/05/06 13:29:07;;;;;;;2.80;2.00;;;15.90;59.90;;;;;;5103782;28;20461;-85
2021/05/06 13:31:39;;;;;;;4.30;2.88;;;16.20;59.60;;;;;;5102978;28;20047;-84
2021/05/06 13:34:09;;;;;;;3.38;3.08;;;16.60;57.90;;;;;;5057244;28;20039;-85
2021/05/06 13:36:35;;;;;;;3.75;3.45;;;16.90;55.80;;;;;;5069763;28;20031;-84
2021/05/06 13:39:07;;;;;;;4.32;3.85;;;16.90;54.80;;;;;;5088348;28;20040;-84
2021/05/06 13:41:45;;;;;;;2.80;2.13;;;16.80;54.20;;;;;;5103701;28;20035;-84
2021/05/06 13:44:20;;;;;;;3.50;3.20;;;16.90;55.00;;;;;;5071463;28;20399;-85
2021/05/06 13:46:55;;;;;;;3.25;2.95;;;17.20;53.70;;;;;;5074343;28;20039;-84
2021/05/06 13:49:26;;;;;;;2.88;2.60;;;17.20;52.70;;;;;;5092110;28;20044;-84
2021/05/06 13:51:55;;;;;;;3.63;3.33;;;16.90;53.70;;;;;;5095999;28;20043;-83
2021/05/06 13:54:23;;;;;;;2.97;2.60;;;16.60;53.00;;;;;;5092817;28;20387;-83
2021/05/06 13:56:49;;;;;;;3.88;3.47;;;16.10;54.20;;;;;;5061146;28;20028;-82
2021/05/06 13:59:16;;;;;;;3.67;3.38;;;15.80;55.00;;;;;;5077929;28;20035;-83
2021/05/06 14:01:44;;;;;;;3.40;3.03;;;15.50;55.30;;;;;;5094979;28;20055;-83
2021/05/06 14:04:11;;;;;;;4.88;3.08;;;15.30;56.20;;;;;;5095962;28;20047;-83
2021/05/06 14:06:37;;;;;;;5.15;3.10;;;15.10;56.70;;;;;;5077654;28;20054;-83
2021/05/06 14:09:04;;;;;;;3.92;2.78;;;14.80;57.00;;;;;;5058639;28;20035;-83
2021/05/06 14:11:31;;;;;;;3.28;2.70;;;14.60;57.00;;;;;;5112698;28;20378;-83
2021/05/06 14:13:57;;;;;;;2.80;2.25;;;14.50;57.50;;;;;;5097298;28;20051;-83
2021/05/06 14:16:24;;;;;;;3.53;2.20;;;14.40;57.80;;;;;;5094918;28;20062;-83
2021/05/06 14:18:53;;;;;;;2.20;1.88;;;14.30;57.80;;;;;;5088914;28;20040;-83
2021/05/06 14:21:22;;;;;;;3.20;2.90;;;14.20;57.90;;;;;;5104559;28;20044;-83
2021/05/06 14:23:50;;;;;;;3.20;2.70;;;14.10;58.20;;;;;;5080695;28;20028;-82
2021/05/06 14:26:18;;;;;;;2.50;1.77;;;14.20;58.40;;;;;;5098073;28;20039;-83
2021/05/06 14:28:46;;;;;;;3.22;2.63;;;14.20;58.90;;;;;;5077588;28;20036;-83
2021/05/06 14:31:13;;;;;;;2.67;2.47;;;14.30;59.20;;;;;;5095694;28;20482;-83
2021/05/06 14:33:39;;;;;;;4.07;3.40;;;14.40;59.50;;;;;;5079050;28;20032;-83
2021/05/06 14:36:08;;;;;;;3.97;2.75;;;14.40;59.30;;;;;;5084048;28;20047;-84
2021/05/06 14:38:35;;;;;;;4.47;3.03;;;14.40;59.50;;;;;;5062286;28;20047;-84
2021/05/06 14:41:03;;;;;;;2.80;2.00;;;14.40;59.40;;;;;;5061160;28;20036;-83
2021/05/06 14:43:29;;;;;;;2.67;2.35;;;14.40;59.20;;;;;;5081019;28;20047;-83
2021/05/06 14:45:56;;;;;;;4.68;2.85;;;14.30;59.60;;;;;;5111631;28;20044;-84
2021/05/06 14:48:23;;;;;;;4.13;3.70;;;14.20;59.40;;;;;;5057107;28;20517;-83
2021/05/06 14:50:49;;;;;;;3.25;2.70;;;14.10;59.10;;;;;;5091845;28;20032;-83
2021/05/06 14:53:16;;;;;;;3.20;2.60;;;14.00;59.30;;;;;;5058702;28;20035;-80
2021/05/06 14:55:43;;;;;;;3.92;3.60;;;13.90;59.30;;;;;;5091342;28;20031;-80
2021/05/06 14:58:09;;;;;;;6.53;5.13;;;13.80;58.80;;;;;;5089979;28;20039;-80
2021/05/06 15:00:36;;;;;;;3.70;3.30;;;13.80;59.50;;;;;;5089530;28;20043;-81
2021/05/06 15:03:03;;;;;;;5.68;4.22;;;13.90;59.50;;;;;;5100390;28;20039;-80
2021/05/06 15:05:31;;;;;;;6.05;4.43;;;14.00;59.10;;;;;;5105598;28;20031;-81
2021/05/06 15:08:02;;;;;;;3.40;3.08;;;14.10;58.20;;;;;;5101024;28;20065;-82
2021/05/06 15:10:28;;;;;;;4.13;3.40;;;14.10;58.30;;;;;;5106553;28;20042;-81
2021/05/06 15:12:55;;;;;;;4.47;3.95;;;14.30;58.20;;;;;;5104689;28;20043;-81
2021/05/06 15:15:22;;;;;;;4.03;3.08;;;14.30;58.50;;;;;;5072408;28;20054;-81
2021/05/06 15:17:51;;;;;;;4.22;3.40;;;14.20;59.70;;;;;;5101841;28;20055;-81
2021/05/06 15:20:21;;;;;;;4.25;3.38;;;14.30;60.60;;;;;;5082903;28;20031;-81
2021/05/06 15:22:48;;;;;;;3.97;3.55;;;14.30;60.90;;;;;;5098742;28;20486;-81
2021/05/06 15:25:15;;;;;;;3.15;2.85;;;14.40;60.50;;;;;;5070515;28;20035;-79
2021/05/06 15:27:42;;;;;;;5.40;2.97;;;14.50;60.70;;;;;;5089274;28;20098;-80
2021/05/06 15:30:12;;;;;;;4.15;3.20;;;14.60;60.70;;;;;;5102936;28;20031;-79
2021/05/06 15:32:38;;;;;;;3.70;3.28;;;14.50;60.50;;;;;;5107041;28;20050;-79
2021/05/06 15:35:06;;;;;;;3.88;3.55;;;14.30;61.10;;;;;;5090250;28;20039;-82
2021/05/06 15:37:36;;;;;;;4.55;3.25;;;14.20;61.00;;;;;;5041773;28;20402;-82
2021/05/06 15:40:06;;;;;;;5.85;4.82;;;14.20;60.70;;;;;;5108718;28;20039;-84
2021/05/06 15:42:32;;;;;;;5.20;3.50;;;14.10;59.50;;;;;;5089899;28;20062;-84
2021/05/06 15:44:59;;;;;;;5.88;4.40;;;14.20;60.10;;;;;;5088392;28;20455;-84
2021/05/06 15:47:25;;;;;;;4.75;4.28;;;14.30;60.40;;;;;;5069965;28;20399;-84
2021/05/06 15:49:52;;;;;;;4.53;4.13;;;14.40;60.90;;;;;;5056156;28;20044;-85
2021/05/06 15:52:19;;;;;;;5.18;4.68;;;14.40;61.60;;;;;;5042964;28;20039;-89
2021/05/06 15:54:45;;;;;;;5.20;4.70;;;14.50;61.40;;;;;;5072858;28;20039;-87
2021/05/06 15:57:12;;;;;;;6.65;5.80;;;14.60;60.30;;;;;;5056131;28;20481;-82
2021/05/06 15:59:39;;;;;;;15.45;9.98;;;14.60;59.30;;;;;;5102493;28;20035;-83
2021/05/06 16:02:07;;;;;;;5.43;4.80;;;14.40;58.20;;;;;;5075542;28;20383;-85
2021/05/06 16:04:36;;;;;;;6.07;3.90;;;14.20;58.50;;;;;;5076785;28;20137;-85
2021/05/06 16:07:03;;;;;;;3.30;3.00;;;14.10;58.70;;;;;;5070921;28;20386;-85
2021/05/06 16:09:29;;;;;;;3.60;2.40;;;14.00;58.90;;;;;;5073473;28;20048;-85
2021/05/06 16:11:56;;;;;;;3.72;3.22;;;14.00;59.10;;;;;;5074708;28;20040;-83